sensor_id;sensor_type;location;lat;lon;timestamp;temperature;humidity
11229;DHT22;5671;47.936;8.716;2023-04-16T00:00:37;4.90;84.20
11229;DHT22;5671;47.936;8.716;2023-04-16T00:03:04;4.90;84.40
11229;DHT22;5671;47.936;8.716;2023-04-16T00:05:31;4.90;84.40
11229;DHT22;5671;47.936;8.716;2023-04-16T00:07:58;4.80;84.60
11229;DHT22;5671;47.936;8.716;2023-04-16T00:10:25;4.90;84.80
11229;DHT22;5671;47.936;8.716;2023-04-16T00:12:51;4.80;84.80
11229;DHT22;5671;47.936;8.716;2023-04-16T00:15:18;4.80;84.80
11229;DHT22;5671;47.936;8.716;2023-04-16T00:17:46;4.80;84.80
11229;DHT22;5671;47.936;8.716;2023-04-16T00:20:13;4.80;84.10
11229;DHT22;5671;47.936;8.716;2023-04-16T00:22:40;4.80;84.20
11229;DHT22;5671;47.936;8.716;2023-04-16T00:25:08;4.80;83.50
11229;DHT22;5671;47.936;8.716;2023-04-16T00:27:34;4.80;84.10
11229;DHT22;5671;47.936;8.716;2023-04-16T00:30:01;4.80;84.80
11229;DHT22;5671;47.936;8.716;2023-04-16T00:32:29;4.80;84.70
11229;DHT22;5671;47.936;8.716;2023-04-16T00:34:57;4.80;84.70
11229;DHT22;5671;47.936;8.716;2023-04-16T00:37:24;4.80;84.40
11229;DHT22;5671;47.936;8.716;2023-04-16T00:39:51;4.80;84.90
11229;DHT22;5671;47.936;8.716;2023-04-16T00:42:18;4.80;85.10
11229;DHT22;5671;47.936;8.716;2023-04-16T00:44:45;4.80;85.00
11229;DHT22;5671;47.936;8.716;2023-04-16T00:47:12;4.80;85.10
11229;DHT22;5671;47.936;8.716;2023-04-16T00:49:39;4.80;85.10
11229;DHT22;5671;47.936;8.716;2023-04-16T00:52:09;4.80;85.10
11229;DHT22;5671;47.936;8.716;2023-04-16T00:54:37;4.80;84.90
11229;DHT22;5671;47.936;8.716;2023-04-16T00:57:04;4.80;85.50
11229;DHT22;5671;47.936;8.716;2023-04-16T00:59:31;4.80;85.30
11229;DHT22;5671;47.936;8.716;2023-04-16T01:01:58;4.80;85.80
11229;DHT22;5671;47.936;8.716;2023-04-16T01:04:25;4.80;85.60
11229;DHT22;5671;47.936;8.716;2023-04-16T01:06:53;4.80;85.60
11229;DHT22;5671;47.936;8.716;2023-04-16T01:09:22;4.80;84.90
11229;DHT22;5671;47.936;8.716;2023-04-16T01:11:48;4.80;85.50
11229;DHT22;5671;47.936;8.716;2023-04-16T01:14:15;4.80;85.70
11229;DHT22;5671;47.936;8.716;2023-04-16T01:16:42;4.80;85.40
11229;DHT22;5671;47.936;8.716;2023-04-16T01:19:09;4.80;85.90
11229;DHT22;5671;47.936;8.716;2023-04-16T01:21:37;4.90;85.00
11229;DHT22;5671;47.936;8.716;2023-04-16T01:24:04;4.90;84.70
11229;DHT22;5671;47.936;8.716;2023-04-16T01:26:31;4.90;85.50
11229;DHT22;5671;47.936;8.716;2023-04-16T01:28:59;4.90;85.40
11229;DHT22;5671;47.936;8.716;2023-04-16T01:31:25;4.80;85.40
11229;DHT22;5671;47.936;8.716;2023-04-16T01:33:52;4.90;84.80
11229;DHT22;5671;47.936;8.716;2023-04-16T01:36:19;4.90;84.90
11229;DHT22;5671;47.936;8.716;2023-04-16T01:38:48;4.90;85.40
11229;DHT22;5671;47.936;8.716;2023-04-16T01:41:15;4.90;85.70
11229;DHT22;5671;47.936;8.716;2023-04-16T01:43:41;4.90;85.50
11229;DHT22;5671;47.936;8.716;2023-04-16T01:46:13;4.90;85.40
11229;DHT22;5671;47.936;8.716;2023-04-16T01:48:41;4.90;85.80
11229;DHT22;5671;47.936;8.716;2023-04-16T01:51:07;4.90;86.00
11229;DHT22;5671;47.936;8.716;2023-04-16T01:53:38;4.90;86.10
11229;DHT22;5671;47.936;8.716;2023-04-16T01:56:06;4.90;86.20
11229;DHT22;5671;47.936;8.716;2023-04-16T01:58:34;4.90;86.20
11229;DHT22;5671;47.936;8.716;2023-04-16T02:01:01;4.90;85.90
11229;DHT22;5671;47.936;8.716;2023-04-16T02:03:30;4.90;85.70
11229;DHT22;5671;47.936;8.716;2023-04-16T02:05:57;4.90;86.00
11229;DHT22;5671;47.936;8.716;2023-04-16T02:08:25;4.90;86.10
11229;DHT22;5671;47.936;8.716;2023-04-16T02:10:52;4.90;86.10
11229;DHT22;5671;47.936;8.716;2023-04-16T02:13:21;4.90;85.20
11229;DHT22;5671;47.936;8.716;2023-04-16T02:15:51;4.90;85.70
11229;DHT22;5671;47.936;8.716;2023-04-16T02:18:18;4.90;86.00
11229;DHT22;5671;47.936;8.716;2023-04-16T02:20:46;5.00;86.00
11229;DHT22;5671;47.936;8.716;2023-04-16T02:23:14;4.90;86.10
11229;DHT22;5671;47.936;8.716;2023-04-16T02:25:42;4.90;86.70
11229;DHT22;5671;47.936;8.716;2023-04-16T02:28:10;4.90;86.40
11229;DHT22;5671;47.936;8.716;2023-04-16T02:30:39;5.00;86.30
11229;DHT22;5671;47.936;8.716;2023-04-16T02:33:07;5.00;86.30
11229;DHT22;5671;47.936;8.716;2023-04-16T02:35:35;5.00;86.70
11229;DHT22;5671;47.936;8.716;2023-04-16T02:38:03;4.90;86.50
11229;DHT22;5671;47.936;8.716;2023-04-16T02:40:30;4.90;87.00
11229;DHT22;5671;47.936;8.716;2023-04-16T02:42:57;4.90;87.30
11229;DHT22;5671;47.936;8.716;2023-04-16T02:45:24;5.00;87.10
11229;DHT22;5671;47.936;8.716;2023-04-16T02:47:52;4.90;87.50
11229;DHT22;5671;47.936;8.716;2023-04-16T02:50:19;4.90;87.30
11229;DHT22;5671;47.936;8.716;2023-04-16T02:52:46;4.90;87.40
11229;DHT22;5671;47.936;8.716;2023-04-16T02:55:13;5.00;87.30
11229;DHT22;5671;47.936;8.716;2023-04-16T02:57:40;4.90;87.40
11229;DHT22;5671;47.936;8.716;2023-04-16T03:00:08;5.00;87.30
11229;DHT22;5671;47.936;8.716;2023-04-16T03:02:35;5.00;87.20
11229;DHT22;5671;47.936;8.716;2023-04-16T03:05:04;4.90;87.50
11229;DHT22;5671;47.936;8.716;2023-04-16T03:07:31;5.00;87.20
11229;DHT22;5671;47.936;8.716;2023-04-16T03:09:58;5.00;87.40
11229;DHT22;5671;47.936;8.716;2023-04-16T03:12:24;5.00;87.70
11229;DHT22;5671;47.936;8.716;2023-04-16T03:14:51;5.00;87.70
11229;DHT22;5671;47.936;8.716;2023-04-16T03:17:18;5.00;87.50
11229;DHT22;5671;47.936;8.716;2023-04-16T03:19:45;4.90;87.50
11229;DHT22;5671;47.936;8.716;2023-04-16T03:22:13;5.00;87.40
11229;DHT22;5671;47.936;8.716;2023-04-16T03:24:40;5.00;87.10
11229;DHT22;5671;47.936;8.716;2023-04-16T03:27:07;4.90;87.00
11229;DHT22;5671;47.936;8.716;2023-04-16T03:29:35;4.90;87.30
11229;DHT22;5671;47.936;8.716;2023-04-16T03:32:02;4.90;87.40
11229;DHT22;5671;47.936;8.716;2023-04-16T03:34:29;4.90;87.40
11229;DHT22;5671;47.936;8.716;2023-04-16T03:36:56;4.90;87.40
11229;DHT22;5671;47.936;8.716;2023-04-16T03:39:24;4.90;87.40
11229;DHT22;5671;47.936;8.716;2023-04-16T03:41:51;4.90;87.70
11229;DHT22;5671;47.936;8.716;2023-04-16T03:44:17;4.90;87.50
11229;DHT22;5671;47.936;8.716;2023-04-16T03:46:45;4.90;87.60
11229;DHT22;5671;47.936;8.716;2023-04-16T03:49:12;4.90;87.60
11229;DHT22;5671;47.936;8.716;2023-04-16T03:51:39;4.90;87.70
11229;DHT22;5671;47.936;8.716;2023-04-16T03:54:05;4.90;87.70
11229;DHT22;5671;47.936;8.716;2023-04-16T03:56:34;4.90;87.60
11229;DHT22;5671;47.936;8.716;2023-04-16T03:59:00;4.90;87.60
11229;DHT22;5671;47.936;8.716;2023-04-16T04:01:27;4.90;87.60
11229;DHT22;5671;47.936;8.716;2023-04-16T04:03:54;4.90;87.70
11229;DHT22;5671;47.936;8.716;2023-04-16T04:06:21;4.90;87.80
11229;DHT22;5671;47.936;8.716;2023-04-16T04:08:48;4.90;87.70
11229;DHT22;5671;47.936;8.716;2023-04-16T04:11:15;4.90;87.80
11229;DHT22;5671;47.936;8.716;2023-04-16T04:13:43;4.90;87.80
11229;DHT22;5671;47.936;8.716;2023-04-16T04:16:10;4.90;88.00
11229;DHT22;5671;47.936;8.716;2023-04-16T04:18:37;4.90;87.90
11229;DHT22;5671;47.936;8.716;2023-04-16T04:21:05;4.90;87.70
11229;DHT22;5671;47.936;8.716;2023-04-16T04:23:31;4.90;87.80
11229;DHT22;5671;47.936;8.716;2023-04-16T04:25:58;4.90;87.40
11229;DHT22;5671;47.936;8.716;2023-04-16T04:28:28;4.90;87.30
11229;DHT22;5671;47.936;8.716;2023-04-16T04:30:56;4.90;87.30
11229;DHT22;5671;47.936;8.716;2023-04-16T04:33:23;4.90;87.50
11229;DHT22;5671;47.936;8.716;2023-04-16T04:35:50;4.90;87.50
11229;DHT22;5671;47.936;8.716;2023-04-16T04:38:17;4.90;87.60
11229;DHT22;5671;47.936;8.716;2023-04-16T04:40:45;4.90;87.80
11229;DHT22;5671;47.936;8.716;2023-04-16T04:43:12;4.90;88.00
11229;DHT22;5671;47.936;8.716;2023-04-16T04:45:39;4.90;87.90
11229;DHT22;5671;47.936;8.716;2023-04-16T04:48:07;4.90;88.00
11229;DHT22;5671;47.936;8.716;2023-04-16T04:50:35;4.90;88.00
11229;DHT22;5671;47.936;8.716;2023-04-16T04:53:02;4.90;88.00
11229;DHT22;5671;47.936;8.716;2023-04-16T04:55:34;4.90;88.20
11229;DHT22;5671;47.936;8.716;2023-04-16T04:58:02;4.90;88.30
11229;DHT22;5671;47.936;8.716;2023-04-16T05:00:28;4.90;87.90
11229;DHT22;5671;47.936;8.716;2023-04-16T05:02:55;5.00;87.90
11229;DHT22;5671;47.936;8.716;2023-04-16T05:05:23;4.90;88.20
11229;DHT22;5671;47.936;8.716;2023-04-16T05:07:50;4.90;88.20
11229;DHT22;5671;47.936;8.716;2023-04-16T05:10:17;4.90;87.90
11229;DHT22;5671;47.936;8.716;2023-04-16T05:12:45;5.00;87.60
11229;DHT22;5671;47.936;8.716;2023-04-16T05:15:11;5.00;87.70
11229;DHT22;5671;47.936;8.716;2023-04-16T05:17:38;5.00;87.60
11229;DHT22;5671;47.936;8.716;2023-04-16T05:20:07;5.00;87.30
11229;DHT22;5671;47.936;8.716;2023-04-16T05:22:35;5.10;87.00
11229;DHT22;5671;47.936;8.716;2023-04-16T05:25:02;5.10;87.30
11229;DHT22;5671;47.936;8.716;2023-04-16T05:27:29;5.10;87.60
11229;DHT22;5671;47.936;8.716;2023-04-16T05:29:56;5.10;87.60
11229;DHT22;5671;47.936;8.716;2023-04-16T05:32:24;5.10;87.10
11229;DHT22;5671;47.936;8.716;2023-04-16T05:34:51;5.10;87.40
11229;DHT22;5671;47.936;8.716;2023-04-16T05:37:18;5.10;87.30
11229;DHT22;5671;47.936;8.716;2023-04-16T05:39:46;5.10;87.20
11229;DHT22;5671;47.936;8.716;2023-04-16T05:42:13;5.20;87.40
11229;DHT22;5671;47.936;8.716;2023-04-16T05:44:40;5.20;87.30
11229;DHT22;5671;47.936;8.716;2023-04-16T05:47:07;5.20;87.20
11229;DHT22;5671;47.936;8.716;2023-04-16T05:49:34;5.20;87.40
11229;DHT22;5671;47.936;8.716;2023-04-16T05:52:02;5.20;87.40
11229;DHT22;5671;47.936;8.716;2023-04-16T05:54:29;5.20;87.10
11229;DHT22;5671;47.936;8.716;2023-04-16T05:56:57;5.30;87.00
11229;DHT22;5671;47.936;8.716;2023-04-16T05:59:24;5.30;87.50
11229;DHT22;5671;47.936;8.716;2023-04-16T06:01:50;5.30;87.40
11229;DHT22;5671;47.936;8.716;2023-04-16T06:04:23;5.30;86.90
11229;DHT22;5671;47.936;8.716;2023-04-16T06:06:54;5.40;87.30
11229;DHT22;5671;47.936;8.716;2023-04-16T06:09:21;5.40;87.10
11229;DHT22;5671;47.936;8.716;2023-04-16T06:11:48;5.40;87.30
11229;DHT22;5671;47.936;8.716;2023-04-16T06:14:16;5.50;86.80
11229;DHT22;5671;47.936;8.716;2023-04-16T06:16:43;5.50;86.60
11229;DHT22;5671;47.936;8.716;2023-04-16T06:19:10;5.50;86.70
11229;DHT22;5671;47.936;8.716;2023-04-16T06:21:36;5.60;86.40
11229;DHT22;5671;47.936;8.716;2023-04-16T06:24:03;5.60;86.00
11229;DHT22;5671;47.936;8.716;2023-04-16T06:26:30;5.60;85.90
11229;DHT22;5671;47.936;8.716;2023-04-16T06:28:57;5.70;86.60
11229;DHT22;5671;47.936;8.716;2023-04-16T06:31:25;5.70;86.90
11229;DHT22;5671;47.936;8.716;2023-04-16T06:33:52;5.70;86.00
11229;DHT22;5671;47.936;8.716;2023-04-16T06:36:19;5.70;85.60
11229;DHT22;5671;47.936;8.716;2023-04-16T06:38:46;5.70;85.80
11229;DHT22;5671;47.936;8.716;2023-04-16T06:41:13;5.70;85.70
11229;DHT22;5671;47.936;8.716;2023-04-16T06:43:40;5.80;85.60
11229;DHT22;5671;47.936;8.716;2023-04-16T06:46:07;5.70;84.90
11229;DHT22;5671;47.936;8.716;2023-04-16T06:48:35;5.80;85.40
11229;DHT22;5671;47.936;8.716;2023-04-16T06:51:03;5.70;85.30
11229;DHT22;5671;47.936;8.716;2023-04-16T06:53:32;5.70;85.90
11229;DHT22;5671;47.936;8.716;2023-04-16T06:55:59;5.80;85.70
11229;DHT22;5671;47.936;8.716;2023-04-16T06:58:26;5.70;85.20
11229;DHT22;5671;47.936;8.716;2023-04-16T07:00:53;5.80;85.80
11229;DHT22;5671;47.936;8.716;2023-04-16T07:03:20;5.70;85.70
11229;DHT22;5671;47.936;8.716;2023-04-16T07:05:48;5.70;85.50
11229;DHT22;5671;47.936;8.716;2023-04-16T07:08:15;5.70;85.30
11229;DHT22;5671;47.936;8.716;2023-04-16T07:10:42;5.70;85.80
11229;DHT22;5671;47.936;8.716;2023-04-16T07:13:09;5.70;85.30
11229;DHT22;5671;47.936;8.716;2023-04-16T07:15:36;5.70;86.30
11229;DHT22;5671;47.936;8.716;2023-04-16T07:18:02;5.70;86.00
11229;DHT22;5671;47.936;8.716;2023-04-16T07:20:29;5.60;85.90
11229;DHT22;5671;47.936;8.716;2023-04-16T07:22:58;5.60;86.20
11229;DHT22;5671;47.936;8.716;2023-04-16T07:25:25;5.60;86.50
11229;DHT22;5671;47.936;8.716;2023-04-16T07:27:52;5.60;86.90
11229;DHT22;5671;47.936;8.716;2023-04-16T07:30:24;5.60;86.70
11229;DHT22;5671;47.936;8.716;2023-04-16T07:32:58;5.60;86.60
11229;DHT22;5671;47.936;8.716;2023-04-16T07:35:25;5.60;86.80
11229;DHT22;5671;47.936;8.716;2023-04-16T07:37:52;5.60;86.60
11229;DHT22;5671;47.936;8.716;2023-04-16T07:40:20;5.60;86.50
11229;DHT22;5671;47.936;8.716;2023-04-16T07:42:47;5.60;86.40
11229;DHT22;5671;47.936;8.716;2023-04-16T07:45:14;5.60;86.50
11229;DHT22;5671;47.936;8.716;2023-04-16T07:47:41;5.60;86.50
11229;DHT22;5671;47.936;8.716;2023-04-16T07:50:08;5.60;86.70
11229;DHT22;5671;47.936;8.716;2023-04-16T07:52:35;5.60;86.50
11229;DHT22;5671;47.936;8.716;2023-04-16T07:55:06;5.60;87.00
11229;DHT22;5671;47.936;8.716;2023-04-16T07:57:34;5.60;86.60
11229;DHT22;5671;47.936;8.716;2023-04-16T08:00:01;5.60;86.70
11229;DHT22;5671;47.936;8.716;2023-04-16T08:02:29;5.70;86.80
11229;DHT22;5671;47.936;8.716;2023-04-16T08:04:56;5.70;86.60
11229;DHT22;5671;47.936;8.716;2023-04-16T08:07:23;5.70;86.80
11229;DHT22;5671;47.936;8.716;2023-04-16T08:09:51;5.80;86.70
11229;DHT22;5671;47.936;8.716;2023-04-16T08:12:18;5.70;86.70
11229;DHT22;5671;47.936;8.716;2023-04-16T08:14:47;5.70;86.00
11229;DHT22;5671;47.936;8.716;2023-04-16T08:17:14;5.80;86.60
11229;DHT22;5671;47.936;8.716;2023-04-16T08:19:42;5.80;86.80
11229;DHT22;5671;47.936;8.716;2023-04-16T08:22:09;5.90;86.70
11229;DHT22;5671;47.936;8.716;2023-04-16T08:24:36;5.90;86.90
11229;DHT22;5671;47.936;8.716;2023-04-16T08:27:03;5.90;86.70
11229;DHT22;5671;47.936;8.716;2023-04-16T08:29:30;6.00;86.60
11229;DHT22;5671;47.936;8.716;2023-04-16T08:31:59;6.00;86.40
11229;DHT22;5671;47.936;8.716;2023-04-16T08:34:26;6.00;86.10
11229;DHT22;5671;47.936;8.716;2023-04-16T08:36:53;6.10;85.90
11229;DHT22;5671;47.936;8.716;2023-04-16T08:39:20;6.10;85.80
11229;DHT22;5671;47.936;8.716;2023-04-16T08:41:48;6.10;85.20
11229;DHT22;5671;47.936;8.716;2023-04-16T08:44:20;6.10;84.90
11229;DHT22;5671;47.936;8.716;2023-04-16T08:46:47;6.20;85.80
11229;DHT22;5671;47.936;8.716;2023-04-16T08:49:16;6.20;85.40
11229;DHT22;5671;47.936;8.716;2023-04-16T08:51:49;6.20;86.00
11229;DHT22;5671;47.936;8.716;2023-04-16T08:54:25;6.40;86.40
11229;DHT22;5671;47.936;8.716;2023-04-16T08:56:57;6.40;86.10
11229;DHT22;5671;47.936;8.716;2023-04-16T08:59:25;6.50;85.50
11229;DHT22;5671;47.936;8.716;2023-04-16T09:01:55;6.60;85.40
11229;DHT22;5671;47.936;8.716;2023-04-16T09:04:25;6.70;85.00
11229;DHT22;5671;47.936;8.716;2023-04-16T09:06:55;6.70;84.90
11229;DHT22;5671;47.936;8.716;2023-04-16T09:09:22;6.70;84.20
11229;DHT22;5671;47.936;8.716;2023-04-16T09:11:55;6.80;83.90
11229;DHT22;5671;47.936;8.716;2023-04-16T09:14:22;6.70;83.00
11229;DHT22;5671;47.936;8.716;2023-04-16T09:16:52;6.80;83.80
11229;DHT22;5671;47.936;8.716;2023-04-16T09:19:20;6.80;83.70
11229;DHT22;5671;47.936;8.716;2023-04-16T09:21:48;6.70;83.40
11229;DHT22;5671;47.936;8.716;2023-04-16T09:24:16;6.70;83.60
11229;DHT22;5671;47.936;8.716;2023-04-16T09:26:44;6.80;84.00
11229;DHT22;5671;47.936;8.716;2023-04-16T09:29:33;6.80;83.70
11229;DHT22;5671;47.936;8.716;2023-04-16T09:32:03;6.80;84.20
11229;DHT22;5671;47.936;8.716;2023-04-16T09:34:31;6.80;83.70
11229;DHT22;5671;47.936;8.716;2023-04-16T09:37:13;6.80;83.80
11229;DHT22;5671;47.936;8.716;2023-04-16T09:39:41;6.90;83.40
11229;DHT22;5671;47.936;8.716;2023-04-16T09:42:08;6.90;83.30
11229;DHT22;5671;47.936;8.716;2023-04-16T09:44:37;7.00;83.60
11229;DHT22;5671;47.936;8.716;2023-04-16T09:47:05;7.00;83.60
11229;DHT22;5671;47.936;8.716;2023-04-16T09:49:33;7.10;82.90
11229;DHT22;5671;47.936;8.716;2023-04-16T09:52:01;7.10;83.00
11229;DHT22;5671;47.936;8.716;2023-04-16T09:54:29;7.20;82.80
11229;DHT22;5671;47.936;8.716;2023-04-16T09:56:56;7.20;82.80
11229;DHT22;5671;47.936;8.716;2023-04-16T09:59:23;7.20;81.10
11229;DHT22;5671;47.936;8.716;2023-04-16T10:01:58;7.20;81.70
11229;DHT22;5671;47.936;8.716;2023-04-16T10:04:26;7.20;81.90
11229;DHT22;5671;47.936;8.716;2023-04-16T10:07:01;7.20;82.10
11229;DHT22;5671;47.936;8.716;2023-04-16T10:09:31;7.10;80.80
11229;DHT22;5671;47.936;8.716;2023-04-16T10:11:58;7.10;81.40
11229;DHT22;5671;47.936;8.716;2023-04-16T10:14:25;7.10;79.60
11229;DHT22;5671;47.936;8.716;2023-04-16T10:16:54;7.20;81.10
11229;DHT22;5671;47.936;8.716;2023-04-16T10:19:21;7.20;81.90
11229;DHT22;5671;47.936;8.716;2023-04-16T10:21:49;7.30;81.50
11229;DHT22;5671;47.936;8.716;2023-04-16T10:24:16;7.40;82.10
11229;DHT22;5671;47.936;8.716;2023-04-16T10:26:43;7.50;80.80
11229;DHT22;5671;47.936;8.716;2023-04-16T10:29:11;7.50;79.50
11229;DHT22;5671;47.936;8.716;2023-04-16T10:31:38;7.50;80.10
11229;DHT22;5671;47.936;8.716;2023-04-16T10:34:08;7.50;82.10
11229;DHT22;5671;47.936;8.716;2023-04-16T10:36:36;7.50;79.80
11229;DHT22;5671;47.936;8.716;2023-04-16T10:39:09;7.50;80.00
11229;DHT22;5671;47.936;8.716;2023-04-16T10:41:36;7.60;80.00
11229;DHT22;5671;47.936;8.716;2023-04-16T10:44:05;7.50;79.00
11229;DHT22;5671;47.936;8.716;2023-04-16T10:46:36;7.50;80.40
11229;DHT22;5671;47.936;8.716;2023-04-16T10:49:13;7.60;81.10
11229;DHT22;5671;47.936;8.716;2023-04-16T10:51:41;7.60;79.60
11229;DHT22;5671;47.936;8.716;2023-04-16T10:54:24;7.70;79.40
11229;DHT22;5671;47.936;8.716;2023-04-16T10:56:52;7.80;80.10
11229;DHT22;5671;47.936;8.716;2023-04-16T10:59:21;7.90;80.60
11229;DHT22;5671;47.936;8.716;2023-04-16T11:01:50;7.80;80.60
11229;DHT22;5671;47.936;8.716;2023-04-16T11:04:37;7.90;78.70
11229;DHT22;5671;47.936;8.716;2023-04-16T11:07:13;7.80;78.30
11229;DHT22;5671;47.936;8.716;2023-04-16T11:09:54;7.80;79.70
11229;DHT22;5671;47.936;8.716;2023-04-16T11:12:23;7.80;77.60
11229;DHT22;5671;47.936;8.716;2023-04-16T11:14:52;7.80;79.40
11229;DHT22;5671;47.936;8.716;2023-04-16T11:17:20;7.80;78.60
11229;DHT22;5671;47.936;8.716;2023-04-16T11:19:49;7.80;79.40
11229;DHT22;5671;47.936;8.716;2023-04-16T11:22:16;7.90;80.10
11229;DHT22;5671;47.936;8.716;2023-04-16T11:24:44;7.90;80.00
11229;DHT22;5671;47.936;8.716;2023-04-16T11:27:12;8.00;79.00
11229;DHT22;5671;47.936;8.716;2023-04-16T11:29:41;8.00;78.30
11229;DHT22;5671;47.936;8.716;2023-04-16T11:32:07;8.40;80.10
11229;DHT22;5671;47.936;8.716;2023-04-16T11:34:42;8.50;76.80
11229;DHT22;5671;47.936;8.716;2023-04-16T11:37:11;8.60;77.40
11229;DHT22;5671;47.936;8.716;2023-04-16T11:39:51;8.60;76.40
11229;DHT22;5671;47.936;8.716;2023-04-16T11:42:19;8.60;77.30
11229;DHT22;5671;47.936;8.716;2023-04-16T11:44:51;8.60;77.20
11229;DHT22;5671;47.936;8.716;2023-04-16T11:47:18;8.60;76.20
11229;DHT22;5671;47.936;8.716;2023-04-16T11:49:45;8.50;75.80
11229;DHT22;5671;47.936;8.716;2023-04-16T11:52:23;8.40;75.90
11229;DHT22;5671;47.936;8.716;2023-04-16T11:54:50;8.40;76.30
11229;DHT22;5671;47.936;8.716;2023-04-16T11:57:23;8.50;76.40
11229;DHT22;5671;47.936;8.716;2023-04-16T11:59:50;8.50;77.10
11229;DHT22;5671;47.936;8.716;2023-04-16T12:02:26;8.40;74.70
11229;DHT22;5671;47.936;8.716;2023-04-16T12:04:59;8.40;74.80
11229;DHT22;5671;47.936;8.716;2023-04-16T12:07:28;8.40;75.30
11229;DHT22;5671;47.936;8.716;2023-04-16T12:10:04;8.30;75.50
11229;DHT22;5671;47.936;8.716;2023-04-16T12:12:31;8.30;75.00
11229;DHT22;5671;47.936;8.716;2023-04-16T12:15:00;8.30;75.50
11229;DHT22;5671;47.936;8.716;2023-04-16T12:17:28;8.20;77.10
11229;DHT22;5671;47.936;8.716;2023-04-16T12:19:57;8.20;76.10
11229;DHT22;5671;47.936;8.716;2023-04-16T12:22:29;8.20;76.90
11229;DHT22;5671;47.936;8.716;2023-04-16T12:25:00;8.20;76.80
11229;DHT22;5671;47.936;8.716;2023-04-16T12:27:40;8.20;77.40
11229;DHT22;5671;47.936;8.716;2023-04-16T12:30:08;8.20;76.70
11229;DHT22;5671;47.936;8.716;2023-04-16T12:32:35;8.20;77.10
11229;DHT22;5671;47.936;8.716;2023-04-16T12:35:03;8.20;76.90
11229;DHT22;5671;47.936;8.716;2023-04-16T12:37:31;8.30;76.20
11229;DHT22;5671;47.936;8.716;2023-04-16T12:39:58;8.20;76.30
11229;DHT22;5671;47.936;8.716;2023-04-16T12:42:25;8.20;76.90
11229;DHT22;5671;47.936;8.716;2023-04-16T12:44:52;8.00;76.30
11229;DHT22;5671;47.936;8.716;2023-04-16T12:47:18;7.80;76.20
11229;DHT22;5671;47.936;8.716;2023-04-16T12:49:45;7.80;76.00
11229;DHT22;5671;47.936;8.716;2023-04-16T12:52:12;7.70;76.60
11229;DHT22;5671;47.936;8.716;2023-04-16T12:54:40;7.70;76.50
11229;DHT22;5671;47.936;8.716;2023-04-16T12:57:07;7.60;76.50
11229;DHT22;5671;47.936;8.716;2023-04-16T12:59:34;7.60;77.40
11229;DHT22;5671;47.936;8.716;2023-04-16T13:02:01;7.50;77.40
11229;DHT22;5671;47.936;8.716;2023-04-16T13:04:28;7.40;77.30
11229;DHT22;5671;47.936;8.716;2023-04-16T13:06:55;7.30;78.40
11229;DHT22;5671;47.936;8.716;2023-04-16T13:09:21;7.30;79.00
11229;DHT22;5671;47.936;8.716;2023-04-16T13:11:50;7.30;78.20
11229;DHT22;5671;47.936;8.716;2023-04-16T13:14:18;7.30;78.90
11229;DHT22;5671;47.936;8.716;2023-04-16T13:16:45;7.40;79.30
11229;DHT22;5671;47.936;8.716;2023-04-16T13:19:12;7.40;78.40
11229;DHT22;5671;47.936;8.716;2023-04-16T13:21:40;7.40;78.00
11229;DHT22;5671;47.936;8.716;2023-04-16T13:24:07;7.40;78.60
11229;DHT22;5671;47.936;8.716;2023-04-16T13:26:34;7.50;79.90
11229;DHT22;5671;47.936;8.716;2023-04-16T13:29:02;7.50;79.00
11229;DHT22;5671;47.936;8.716;2023-04-16T13:31:29;7.50;77.60
11229;DHT22;5671;47.936;8.716;2023-04-16T13:33:56;7.40;77.30
11229;DHT22;5671;47.936;8.716;2023-04-16T13:36:23;7.40;78.20
11229;DHT22;5671;47.936;8.716;2023-04-16T13:38:50;7.40;78.70
11229;DHT22;5671;47.936;8.716;2023-04-16T13:41:17;7.40;78.50
11229;DHT22;5671;47.936;8.716;2023-04-16T13:43:43;7.40;78.80
11229;DHT22;5671;47.936;8.716;2023-04-16T13:46:12;7.40;78.70
11229;DHT22;5671;47.936;8.716;2023-04-16T13:48:39;7.40;79.00
11229;DHT22;5671;47.936;8.716;2023-04-16T13:51:06;7.50;79.50
11229;DHT22;5671;47.936;8.716;2023-04-16T13:53:32;7.50;79.30
11229;DHT22;5671;47.936;8.716;2023-04-16T13:56:00;7.40;78.80
11229;DHT22;5671;47.936;8.716;2023-04-16T13:58:28;7.40;78.70
11229;DHT22;5671;47.936;8.716;2023-04-16T14:00:55;7.40;78.60
11229;DHT22;5671;47.936;8.716;2023-04-16T14:03:24;7.40;78.00
11229;DHT22;5671;47.936;8.716;2023-04-16T14:05:51;7.30;78.40
11229;DHT22;5671;47.936;8.716;2023-04-16T14:08:18;7.20;79.00
11229;DHT22;5671;47.936;8.716;2023-04-16T14:10:45;7.20;79.80
11229;DHT22;5671;47.936;8.716;2023-04-16T14:13:12;7.20;80.00
11229;DHT22;5671;47.936;8.716;2023-04-16T14:15:40;7.20;80.40
11229;DHT22;5671;47.936;8.716;2023-04-16T14:18:06;7.10;79.00
11229;DHT22;5671;47.936;8.716;2023-04-16T14:20:35;7.10;80.70
11229;DHT22;5671;47.936;8.716;2023-04-16T14:23:10;7.10;81.10
11229;DHT22;5671;47.936;8.716;2023-04-16T14:25:40;7.10;80.80
11229;DHT22;5671;47.936;8.716;2023-04-16T14:28:07;7.10;80.70
11229;DHT22;5671;47.936;8.716;2023-04-16T14:30:34;7.10;81.20
11229;DHT22;5671;47.936;8.716;2023-04-16T14:33:03;7.10;81.70
11229;DHT22;5671;47.936;8.716;2023-04-16T14:35:30;7.10;81.80
11229;DHT22;5671;47.936;8.716;2023-04-16T14:38:00;7.20;81.70
11229;DHT22;5671;47.936;8.716;2023-04-16T14:40:27;7.10;79.00
11229;DHT22;5671;47.936;8.716;2023-04-16T14:42:53;7.10;80.30
11229;DHT22;5671;47.936;8.716;2023-04-16T14:45:21;7.00;80.90
11229;DHT22;5671;47.936;8.716;2023-04-16T14:47:49;7.00;80.40
11229;DHT22;5671;47.936;8.716;2023-04-16T14:50:16;7.00;81.20
11229;DHT22;5671;47.936;8.716;2023-04-16T14:52:44;7.00;81.20
11229;DHT22;5671;47.936;8.716;2023-04-16T14:55:12;7.00;80.60
11229;DHT22;5671;47.936;8.716;2023-04-16T14:57:39;7.00;81.60
11229;DHT22;5671;47.936;8.716;2023-04-16T15:00:09;7.00;80.90
11229;DHT22;5671;47.936;8.716;2023-04-16T15:02:37;7.00;80.60
11229;DHT22;5671;47.936;8.716;2023-04-16T15:05:05;6.90;80.20
11229;DHT22;5671;47.936;8.716;2023-04-16T15:07:34;6.90;80.50
11229;DHT22;5671;47.936;8.716;2023-04-16T15:10:01;6.90;81.40
11229;DHT22;5671;47.936;8.716;2023-04-16T15:12:29;6.90;81.00
11229;DHT22;5671;47.936;8.716;2023-04-16T15:14:56;6.90;81.70
11229;DHT22;5671;47.936;8.716;2023-04-16T15:17:24;6.90;80.80
11229;DHT22;5671;47.936;8.716;2023-04-16T15:19:51;6.90;81.20
11229;DHT22;5671;47.936;8.716;2023-04-16T15:22:18;6.80;81.30
11229;DHT22;5671;47.936;8.716;2023-04-16T15:24:45;6.80;81.20
11229;DHT22;5671;47.936;8.716;2023-04-16T15:27:12;6.80;80.70
11229;DHT22;5671;47.936;8.716;2023-04-16T15:29:40;6.80;81.40
11229;DHT22;5671;47.936;8.716;2023-04-16T15:32:08;6.80;81.20
11229;DHT22;5671;47.936;8.716;2023-04-16T15:34:35;6.80;80.80
11229;DHT22;5671;47.936;8.716;2023-04-16T15:37:02;6.80;81.30
11229;DHT22;5671;47.936;8.716;2023-04-16T15:39:29;6.80;80.60
11229;DHT22;5671;47.936;8.716;2023-04-16T15:41:56;6.80;81.10
11229;DHT22;5671;47.936;8.716;2023-04-16T15:44:23;6.80;81.10
11229;DHT22;5671;47.936;8.716;2023-04-16T15:46:52;6.90;81.50
11229;DHT22;5671;47.936;8.716;2023-04-16T15:49:18;6.90;80.80
11229;DHT22;5671;47.936;8.716;2023-04-16T15:51:45;6.90;81.10
11229;DHT22;5671;47.936;8.716;2023-04-16T15:54:12;6.90;81.00
11229;DHT22;5671;47.936;8.716;2023-04-16T15:56:39;6.90;81.00
11229;DHT22;5671;47.936;8.716;2023-04-16T15:59:06;6.90;80.60
11229;DHT22;5671;47.936;8.716;2023-04-16T16:01:33;6.90;81.00
11229;DHT22;5671;47.936;8.716;2023-04-16T16:04:02;6.90;81.20
11229;DHT22;5671;47.936;8.716;2023-04-16T16:06:29;6.80;81.50